createdAt,value
2022-10-06T00:01:27.978Z,76.53
2022-10-06T00:03:54.366Z,76.50
2022-10-06T00:06:20.669Z,76.36
2022-10-06T00:08:47.040Z,76.34
2022-10-06T00:11:14.039Z,76.58
2022-10-06T00:13:41.049Z,76.52
2022-10-06T00:16:11.089Z,76.67
2022-10-06T00:18:37.629Z,76.46
2022-10-06T00:21:04.176Z,76.89
2022-10-06T00:23:30.687Z,76.60
2022-10-06T00:25:57.090Z,76.58
2022-10-06T00:28:23.465Z,76.62
2022-10-06T00:30:51.090Z,76.63
2022-10-06T00:33:17.996Z,76.56
2022-10-06T00:35:44.457Z,76.42
2022-10-06T00:38:12.871Z,76.34
2022-10-06T00:40:46.433Z,76.52
2022-10-06T00:43:31.780Z,76.44
2022-10-06T00:45:58.225Z,76.62
2022-10-06T00:48:26.843Z,76.72
2022-10-06T00:50:56.553Z,76.63
2022-10-06T00:53:32.261Z,76.57
2022-10-06T00:55:58.645Z,76.40
2022-10-06T00:58:25.319Z,76.31
2022-10-06T01:00:56.018Z,76.43
2022-10-06T01:03:27.116Z,76.18
2022-10-06T01:05:54.638Z,76.14
2022-10-06T01:08:22.312Z,76.08
2022-10-06T01:10:48.625Z,76.02
2022-10-06T01:13:15.964Z,76.13
2022-10-06T01:15:48.067Z,76.19
2022-10-06T01:18:17.623Z,76.15
2022-10-06T01:20:47.061Z,76.14
2022-10-06T01:23:13.569Z,76.11
2022-10-06T01:25:39.963Z,75.91
2022-10-06T01:28:07.808Z,76.12
2022-10-06T01:31:01.536Z,76.03
2022-10-06T01:33:29.724Z,76.02
2022-10-06T01:35:59.108Z,75.73
2022-10-06T01:38:25.747Z,75.78
2022-10-06T01:40:53.073Z,75.73
2022-10-06T01:43:19.924Z,75.40
2022-10-06T01:45:51.638Z,75.40
2022-10-06T01:48:17.932Z,75.61
2022-10-06T01:50:44.777Z,75.51
2022-10-06T01:53:11.345Z,75.33
2022-10-06T01:55:37.779Z,75.57
2022-10-06T01:58:04.125Z,75.50
2022-10-06T02:00:30.619Z,75.61
2022-10-06T02:02:57.220Z,75.42
2022-10-06T02:05:23.839Z,75.51
2022-10-06T02:07:50.167Z,75.62
2022-10-06T02:10:16.486Z,75.44
2022-10-06T02:12:42.790Z,75.48
2022-10-06T02:15:11.016Z,75.28
2022-10-06T02:17:38.095Z,75.28
2022-10-06T02:20:05.269Z,75.26
2022-10-06T02:22:31.574Z,75.14
2022-10-06T02:24:58.042Z,75.07
2022-10-06T02:27:24.427Z,75.09
2022-10-06T02:29:50.920Z,75.07
2022-10-06T02:32:17.218Z,74.83
2022-10-06T02:34:43.575Z,74.83
2022-10-06T02:37:10.630Z,74.72
2022-10-06T02:39:36.917Z,74.71
2022-10-06T02:42:03.985Z,74.73
2022-10-06T02:44:30.592Z,74.60
2022-10-06T02:46:56.991Z,74.64
2022-10-06T02:49:23.304Z,74.53
2022-10-06T02:51:49.848Z,74.48
2022-10-06T02:54:16.396Z,74.44
2022-10-06T02:56:43.009Z,74.30
2022-10-06T02:59:09.312Z,74.30
2022-10-06T03:01:35.736Z,74.33
2022-10-06T03:04:02.086Z,74.07
2022-10-06T03:06:29.797Z,74.27
2022-10-06T03:08:59.056Z,74.24
2022-10-06T03:11:26.581Z,74.19
2022-10-06T03:13:53.227Z,74.05
2022-10-06T03:16:24.184Z,74.34
2022-10-06T03:18:51.807Z,74.09
2022-10-06T03:21:19.144Z,74.11
2022-10-06T03:23:49.603Z,74.19
2022-10-06T03:26:17.644Z,74.27
2022-10-06T03:28:44.827Z,74.24
2022-10-06T03:31:11.600Z,73.87
2022-10-06T03:33:38.031Z,74.10
2022-10-06T03:36:06.864Z,74.15
2022-10-06T03:38:33.534Z,73.78
2022-10-06T03:41:07.578Z,73.69
2022-10-06T03:43:34.583Z,73.92
2022-10-06T03:46:01.370Z,73.67
2022-10-06T03:48:28.985Z,73.84
2022-10-06T03:51:02.944Z,74.01
2022-10-06T03:53:29.821Z,74.08
2022-10-06T03:56:00.344Z,73.80
2022-10-06T03:58:30.099Z,73.97
2022-10-06T04:01:00.981Z,73.97
2022-10-06T04:03:27.505Z,74.49
2022-10-06T04:05:54.776Z,74.43
2022-10-06T04:08:21.070Z,74.00
2022-10-06T04:10:47.579Z,74.37
2022-10-06T04:13:15.594Z,74.07
2022-10-06T04:15:41.890Z,74.10
2022-10-06T04:18:08.205Z,74.51
2022-10-06T04:20:34.513Z,74.63
2022-10-06T04:23:00.783Z,74.21
2022-10-06T04:25:27.094Z,73.99
2022-10-06T04:27:53.434Z,74.55
2022-10-06T04:30:19.905Z,74.34
2022-10-06T04:32:46.198Z,74.08
2022-10-06T04:35:12.485Z,74.26
2022-10-06T04:37:39.359Z,73.95
2022-10-06T04:40:06.023Z,74.31
2022-10-06T04:42:35.109Z,73.98
2022-10-06T04:45:01.783Z,74.21
2022-10-06T04:47:28.097Z,74.36
2022-10-06T04:49:54.410Z,74.14
2022-10-06T04:52:20.741Z,74.38
2022-10-06T04:54:47.033Z,74.46
2022-10-06T04:57:13.328Z,74.32
2022-10-06T05:00:03.018Z,74.47
2022-10-06T05:02:32.482Z,74.20
2022-10-06T05:04:58.888Z,74.50
2022-10-06T05:07:25.209Z,74.13
2022-10-06T05:09:51.542Z,74.19
2022-10-06T05:12:18.056Z,74.20
2022-10-06T05:14:46.937Z,74.13
2022-10-06T05:17:13.550Z,74.66
2022-10-06T05:19:39.868Z,74.64
2022-10-06T05:22:06.211Z,74.55
2022-10-06T05:24:32.534Z,74.14
2022-10-06T05:27:02.090Z,74.53
2022-10-06T05:29:28.585Z,74.40
2022-10-06T05:31:55.585Z,74.82
2022-10-06T05:34:22.051Z,74.28
2022-10-06T05:36:48.412Z,74.76
2022-10-06T05:39:14.720Z,74.67
2022-10-06T05:41:41.053Z,74.39
2022-10-06T05:44:08.604Z,74.77
2022-10-06T05:46:35.327Z,74.75
2022-10-06T05:49:07.050Z,74.73
2022-10-06T05:51:34.292Z,74.38
2022-10-06T05:54:03.238Z,74.29
2022-10-06T05:56:36.581Z,74.67
2022-10-06T05:59:03.700Z,74.75
2022-10-06T06:01:31.334Z,74.40
2022-10-06T06:04:02.949Z,74.46
2022-10-06T06:06:30.989Z,74.45
2022-10-06T06:08:58.713Z,74.43
2022-10-06T06:11:27.548Z,74.75
2022-10-06T06:13:57.925Z,74.89
2022-10-06T06:16:24.802Z,74.56
2022-10-06T06:18:51.429Z,74.78
2022-10-06T06:21:17.828Z,74.40
2022-10-06T06:23:46.325Z,74.61
2022-10-06T06:26:26.021Z,74.54
2022-10-06T06:28:53.462Z,74.58
2022-10-06T06:31:22.934Z,74.92
2022-10-06T06:33:53.701Z,74.81
2022-10-06T06:36:20.254Z,74.74
2022-10-06T06:38:49.613Z,74.75
2022-10-06T06:41:17.480Z,74.67
2022-10-06T06:43:44.353Z,74.15
2022-10-06T06:46:11.450Z,74.65
2022-10-06T06:48:38.034Z,74.54
2022-10-06T06:51:05.137Z,74.22
2022-10-06T06:53:31.960Z,74.03
2022-10-06T06:56:06.366Z,74.29
2022-10-06T06:58:33.200Z,73.84
2022-10-06T07:01:06.766Z,73.72
2022-10-06T07:03:56.054Z,73.76
2022-10-06T07:06:20.641Z,74.01
2022-10-06T07:08:48.803Z,73.89
2022-10-06T07:11:19.300Z,73.75
2022-10-06T07:13:46.382Z,73.86
2022-10-06T07:16:32.880Z,73.42
2022-10-06T07:19:23.822Z,73.19
2022-10-06T07:22:42.508Z,72.55
2022-10-06T07:25:25.334Z,72.23
2022-10-06T07:27:51.993Z,72.14
2022-10-06T07:30:20.224Z,72.15
2022-10-06T07:32:47.961Z,72.09
2022-10-06T07:35:15.437Z,71.35
2022-10-06T07:37:41.783Z,70.99
2022-10-06T07:40:09.056Z,70.84
2022-10-06T07:42:48.085Z,70.06
2022-10-06T07:45:37.998Z,69.91
2022-10-06T07:48:14.647Z,69.44
2022-10-06T07:50:41.855Z,69.15
2022-10-06T07:53:11.243Z,68.66
2022-10-06T07:55:39.787Z,68.52
2022-10-06T07:58:16.141Z,68.15
2022-10-06T08:00:42.942Z,68.30
2022-10-06T08:03:10.414Z,67.55
2022-10-06T08:05:39.027Z,66.95
2022-10-06T08:08:05.980Z,66.04
2022-10-06T08:10:32.304Z,66.02
2022-10-06T08:12:58.666Z,65.34
2022-10-06T08:15:24.940Z,64.77
2022-10-06T08:17:53.841Z,63.97
2022-10-06T08:20:20.156Z,63.29
2022-10-06T08:22:47.501Z,62.70
2022-10-06T08:25:14.082Z,62.73
2022-10-06T08:27:44.122Z,61.45
2022-10-06T08:30:11.742Z,61.22
2022-10-06T08:32:38.147Z,60.78
2022-10-06T08:35:04.977Z,60.25
2022-10-06T08:37:31.298Z,58.98
2022-10-06T08:39:57.600Z,58.51
2022-10-06T08:42:32.118Z,57.25
2022-10-06T08:45:00.247Z,57.03
2022-10-06T08:47:33.946Z,56.71
2022-10-06T08:50:01.170Z,55.73
2022-10-06T08:52:46.789Z,54.25
2022-10-06T08:55:37.232Z,53.14
2022-10-06T08:58:18.051Z,53.06
2022-10-06T09:00:44.390Z,52.31
2022-10-06T09:03:17.456Z,52.36
2022-10-06T09:05:44.577Z,50.97
2022-10-06T09:08:29.487Z,51.79
2022-10-06T09:11:08.321Z,50.70
2022-10-06T09:13:41.767Z,50.46
2022-10-06T09:16:15.294Z,50.09
2022-10-06T09:19:08.632Z,49.29
2022-10-06T09:21:49.961Z,49.08
2022-10-06T09:24:17.623Z,49.15
2022-10-06T09:26:46.426Z,49.17
2022-10-06T09:29:12.936Z,48.75
2022-10-06T09:31:42.155Z,49.01
2022-10-06T09:34:08.613Z,47.43
2022-10-06T09:37:00.271Z,48.02
2022-10-06T09:39:32.480Z,47.41
2022-10-06T09:42:18.988Z,47.26
2022-10-06T09:44:51.351Z,47.40
2022-10-06T09:47:24.290Z,46.33
2022-10-06T09:50:03.870Z,46.23
2022-10-06T09:52:30.228Z,45.89
2022-10-06T09:55:09.997Z,45.59
2022-10-06T09:57:37.235Z,45.23
2022-10-06T10:00:04.605Z,44.03
2022-10-06T10:02:37.104Z,44.59
2022-10-06T10:05:18.367Z,45.13
2022-10-06T10:07:48.042Z,45.05
2022-10-06T10:10:19.088Z,44.54
2022-10-06T10:12:49.249Z,43.92
2022-10-06T10:15:18.438Z,42.82
2022-10-06T10:17:48.167Z,43.29
2022-10-06T10:20:41.242Z,44.09
2022-10-06T10:23:16.591Z,43.26
2022-10-06T10:25:51.714Z,42.95
2022-10-06T10:28:21.050Z,43.75
2022-10-06T10:30:51.900Z,43.51
2022-10-06T10:33:37.015Z,42.93
2022-10-06T10:36:05.706Z,43.14
2022-10-06T10:38:40.744Z,41.75
2022-10-06T10:41:16.208Z,41.68
2022-10-06T10:43:47.797Z,41.29
2022-10-06T10:46:28.607Z,41.47
2022-10-06T10:48:55.335Z,41.12
2022-10-06T10:51:24.809Z,41.10
2022-10-06T10:53:54.844Z,40.84
2022-10-06T10:56:22.861Z,40.42
2022-10-06T10:58:52.474Z,40.97
2022-10-06T11:01:39.225Z,39.62
2022-10-06T11:04:10.104Z,40.83
2022-10-06T11:06:43.464Z,39.68
2022-10-06T11:09:09.777Z,40.82
2022-10-06T11:11:55.048Z,39.50
2022-10-06T11:14:33.027Z,40.68
2022-10-06T11:17:03.997Z,40.81
2022-10-06T11:19:42.537Z,37.99
2022-10-06T11:22:22.803Z,36.90
2022-10-06T11:24:57.754Z,36.43
2022-10-06T11:27:33.829Z,36.07
2022-10-06T11:30:02.904Z,35.39
2022-10-06T11:32:38.547Z,35.42
2022-10-06T11:35:16.024Z,35.58
2022-10-06T11:37:49.139Z,35.86
2022-10-06T11:40:32.189Z,36.12
2022-10-06T11:43:06.112Z,35.22
2022-10-06T11:45:48.899Z,35.37
2022-10-06T11:48:29.744Z,35.39
2022-10-06T11:50:57.053Z,35.00
2022-10-06T11:53:23.323Z,35.64
2022-10-06T11:56:09.598Z,34.79
2022-10-06T11:58:51.292Z,34.98
2022-10-06T12:01:39.341Z,34.43
2022-10-06T12:04:08.853Z,35.09
2022-10-06T12:06:47.474Z,35.39
2022-10-06T12:09:26.148Z,36.00
2022-10-06T12:11:55.964Z,36.92
2022-10-06T12:16:00.073Z,35.79
2022-10-06T12:17:19.751Z,35.68
2022-10-06T12:19:52.469Z,35.06
2022-10-06T12:22:31.862Z,34.72
2022-10-06T12:25:12.426Z,34.79
2022-10-06T12:27:52.005Z,34.71
2022-10-06T12:30:21.162Z,34.59
2022-10-06T12:32:47.627Z,34.54
2022-10-06T12:35:17.242Z,34.91
2022-10-06T12:37:53.084Z,34.48
2022-10-06T12:40:47.143Z,34.59
2022-10-06T12:43:20.793Z,34.50
2022-10-06T12:45:47.117Z,35.09
2022-10-06T12:48:21.949Z,35.15
2022-10-06T12:50:49.255Z,35.11
2022-10-06T12:53:25.317Z,34.68
2022-10-06T12:55:53.742Z,35.08
2022-10-06T12:58:26.005Z,35.53
2022-10-06T13:00:53.418Z,35.26
2022-10-06T13:03:24.194Z,35.03
2022-10-06T13:05:51.924Z,34.75
2022-10-06T13:08:21.517Z,34.43
2022-10-06T13:10:47.866Z,35.05
2022-10-06T13:13:24.308Z,34.71
2022-10-06T13:15:55.754Z,34.65
2022-10-06T13:18:23.066Z,34.95
2022-10-06T13:20:51.595Z,35.25
2022-10-06T13:23:23.061Z,34.29
2022-10-06T13:25:52.675Z,34.98
2022-10-06T13:28:21.135Z,35.21
2022-10-06T13:30:51.743Z,35.56
2022-10-06T13:33:18.514Z,35.92
2022-10-06T13:35:45.615Z,36.04
2022-10-06T13:38:12.048Z,35.93
2022-10-06T13:40:44.639Z,35.95
2022-10-06T13:43:15.297Z,36.39
2022-10-06T13:45:42.851Z,36.35
2022-10-06T13:48:17.132Z,35.54
2022-10-06T13:50:47.640Z,35.71
2022-10-06T13:53:25.653Z,36.67
2022-10-06T13:55:52.548Z,35.62
2022-10-06T13:58:19.352Z,35.75
2022-10-06T14:00:48.641Z,36.08
2022-10-06T14:03:24.854Z,36.56
2022-10-06T14:05:52.245Z,36.05
2022-10-06T14:08:24.356Z,36.49
2022-10-06T14:10:53.026Z,35.77
2022-10-06T14:13:27.129Z,36.19
2022-10-06T14:16:01.825Z,37.06
2022-10-06T14:18:31.045Z,37.22
2022-10-06T14:20:57.522Z,37.04
2022-10-06T14:23:42.878Z,36.57
2022-10-06T14:26:11.104Z,37.26
2022-10-06T14:31:03.853Z,35.84
2022-10-06T14:33:30.231Z,36.97
2022-10-06T14:35:56.554Z,36.66
2022-10-06T14:38:24.488Z,37.51
2022-10-06T14:40:51.305Z,37.79
2022-10-06T14:43:18.196Z,38.23
2022-10-06T14:45:45.017Z,38.01
2022-10-06T14:48:15.001Z,38.23
2022-10-06T14:50:45.114Z,38.32
2022-10-06T14:53:13.741Z,37.80
2022-10-06T14:55:40.153Z,38.17
2022-10-06T14:58:06.545Z,38.35
2022-10-06T15:00:33.027Z,38.34
2022-10-06T15:02:59.405Z,38.30
2022-10-06T15:05:25.844Z,38.17
2022-10-06T15:08:10.608Z,38.64
2022-10-06T15:10:38.763Z,39.12
2022-10-06T15:13:06.311Z,39.35
2022-10-06T15:15:33.657Z,39.11
2022-10-06T15:18:01.461Z,40.05
2022-10-06T15:20:27.765Z,40.21
2022-10-06T15:22:54.065Z,40.71
2022-10-06T15:25:38.875Z,41.02
2022-10-06T15:28:23.919Z,41.30
2022-10-06T15:30:50.373Z,41.58
2022-10-06T15:33:17.177Z,42.21
2022-10-06T15:35:48.654Z,42.68
2022-10-06T15:38:14.956Z,42.48
2022-10-06T15:40:41.333Z,42.50
2022-10-06T15:43:07.640Z,43.47
2022-10-06T15:45:36.097Z,43.25
2022-10-06T15:48:02.454Z,43.31
2022-10-06T15:50:29.127Z,43.34
2022-10-06T15:52:55.425Z,43.56
2022-10-06T15:55:21.770Z,44.51
2022-10-06T15:57:48.099Z,43.59
2022-10-06T16:00:14.609Z,43.49
2022-10-06T16:02:41.053Z,43.94
2022-10-06T16:05:07.641Z,43.69
2022-10-06T16:07:34.861Z,43.80
2022-10-06T16:10:01.292Z,43.61
2022-10-06T16:12:28.531Z,43.04
2022-10-06T16:14:55.365Z,43.50
2022-10-06T16:17:21.697Z,42.79
2022-10-06T16:19:48.186Z,43.30
2022-10-06T16:22:16.432Z,43.57
2022-10-06T16:24:42.740Z,43.47
2022-10-06T16:27:12.995Z,44.00
2022-10-06T16:29:39.340Z,43.50
2022-10-06T16:32:05.632Z,43.38
2022-10-06T16:34:32.690Z,43.33
2022-10-06T16:36:59.066Z,43.68
2022-10-06T16:39:25.395Z,43.68
2022-10-06T16:41:51.797Z,43.85
2022-10-06T16:44:18.390Z,44.09
2022-10-06T16:46:44.959Z,44.46
2022-10-06T16:49:11.443Z,44.61
2022-10-06T16:51:38.955Z,45.13
2022-10-06T16:54:06.669Z,45.16
2022-10-06T16:56:34.382Z,45.14
2022-10-06T16:59:03.654Z,46.51
2022-10-06T17:01:35.096Z,46.25
2022-10-06T17:04:03.338Z,46.55
2022-10-06T17:06:30.547Z,46.43
2022-10-06T17:08:56.897Z,46.73
2022-10-06T17:11:25.316Z,47.89
2022-10-06T17:13:53.121Z,47.41
2022-10-06T17:16:21.381Z,47.94
2022-10-06T17:18:48.500Z,48.31
2022-10-06T17:21:39.756Z,48.25
2022-10-06T17:24:03.145Z,48.66
2022-10-06T17:26:30.650Z,48.87
2022-10-06T17:29:01.437Z,49.01
2022-10-06T17:31:35.766Z,49.35
2022-10-06T17:34:03.119Z,49.29
2022-10-06T17:36:29.504Z,49.66
2022-10-06T17:39:01.523Z,49.28
2022-10-06T17:41:31.873Z,49.41
2022-10-06T17:44:05.835Z,49.96
2022-10-06T17:46:34.145Z,50.51
2022-10-06T17:49:02.909Z,49.96
2022-10-06T17:51:29.369Z,50.33
2022-10-06T17:53:57.281Z,50.52
2022-10-06T17:56:25.058Z,50.43
2022-10-06T17:58:55.804Z,50.90
2022-10-06T18:01:23.295Z,51.07
2022-10-06T18:03:51.296Z,50.82
2022-10-06T18:06:17.745Z,50.89
2022-10-06T18:08:44.938Z,50.99
2022-10-06T18:11:30.572Z,51.19
2022-10-06T18:13:58.876Z,52.02
2022-10-06T18:16:39.956Z,51.33
2022-10-06T18:19:07.677Z,51.31
2022-10-06T18:21:38.775Z,51.50
2022-10-06T18:24:06.662Z,52.49
2022-10-06T18:26:37.378Z,52.16
2022-10-06T18:29:04.288Z,51.96
2022-10-06T18:31:30.609Z,52.07
2022-10-06T18:36:43.504Z,52.15
2022-10-06T18:39:11.627Z,52.68
2022-10-06T18:41:39.562Z,52.68
2022-10-06T18:44:05.947Z,52.88
2022-10-06T18:46:51.087Z,52.79
2022-10-06T18:49:18.622Z,53.07
2022-10-06T18:51:48.998Z,53.18
2022-10-06T18:54:17.613Z,53.38
2022-10-06T18:56:47.560Z,53.75
2022-10-06T18:59:14.201Z,52.96
2022-10-06T19:01:41.770Z,53.39
2022-10-06T19:04:09.957Z,53.03
2022-10-06T19:06:37.438Z,53.49
2022-10-06T19:09:04.911Z,53.43
2022-10-06T19:11:46.101Z,53.67
2022-10-06T19:14:14.504Z,53.85
2022-10-06T19:16:41.694Z,54.53
2022-10-06T19:19:12.482Z,53.83
2022-10-06T19:21:40.693Z,54.22
2022-10-06T19:24:08.053Z,54.07
2022-10-06T19:26:40.323Z,53.86
2022-10-06T19:29:09.340Z,54.35
2022-10-06T19:31:37.947Z,54.44
2022-10-06T19:34:05.162Z,54.23
2022-10-06T19:36:33.113Z,54.20
2022-10-06T19:39:01.463Z,54.36
2022-10-06T19:41:46.638Z,54.65
2022-10-06T19:44:12.961Z,54.12
2022-10-06T19:46:39.314Z,54.61
2022-10-06T19:49:05.957Z,54.82
2022-10-06T19:51:34.175Z,54.44
2022-10-06T19:54:02.629Z,54.94
2022-10-06T19:56:30.100Z,54.75
2022-10-06T19:58:58.375Z,54.69
2022-10-06T20:01:25.292Z,55.03
2022-10-06T20:03:52.559Z,54.85
2022-10-06T20:06:20.522Z,55.36
2022-10-06T20:08:46.929Z,55.40
2022-10-06T20:11:14.760Z,55.72
2022-10-06T20:13:41.881Z,55.78
2022-10-06T20:16:10.277Z,55.61
2022-10-06T20:18:47.026Z,55.87
2022-10-06T20:21:16.465Z,55.85
2022-10-06T20:23:48.151Z,55.85
2022-10-06T20:26:20.847Z,56.24
2022-10-06T20:28:53.361Z,56.26
2022-10-06T20:31:21.500Z,56.17
2022-10-06T20:33:50.206Z,56.06
2022-10-06T20:36:17.580Z,56.08
2022-10-06T20:39:06.877Z,56.50
2022-10-06T20:41:33.822Z,56.57
2022-10-06T20:44:01.692Z,56.42
2022-10-06T20:46:31.310Z,57.22
2022-10-06T20:49:03.442Z,56.75
2022-10-06T20:51:33.933Z,56.79
2022-10-06T20:54:01.541Z,56.64
2022-10-06T20:56:28.049Z,56.74
2022-10-06T20:58:55.010Z,56.59
2022-10-06T21:01:25.739Z,56.97
2022-10-06T21:03:55.675Z,57.19
2022-10-06T21:06:23.643Z,56.92
2022-10-06T21:08:51.455Z,57.04
2022-10-06T21:11:19.714Z,57.06
2022-10-06T21:13:53.981Z,57.37
2022-10-06T21:16:22.044Z,57.58
2022-10-06T21:18:48.759Z,57.59
2022-10-06T21:21:15.577Z,57.24
2022-10-06T21:23:44.424Z,57.60
2022-10-06T21:26:12.404Z,57.21
2022-10-06T21:28:40.586Z,57.50
2022-10-06T21:31:12.948Z,57.41
2022-10-06T21:33:43.397Z,57.56
2022-10-06T21:36:14.671Z,57.16
2022-10-06T21:38:43.475Z,57.19
2022-10-06T21:41:29.469Z,57.18
2022-10-06T21:43:57.100Z,57.01
2022-10-06T21:46:28.907Z,57.08
2022-10-06T21:48:57.979Z,57.15
2022-10-06T21:51:25.615Z,56.92
2022-10-06T21:53:52.755Z,56.99
2022-10-06T21:56:21.024Z,56.97
2022-10-06T21:58:52.852Z,57.02
2022-10-06T22:01:21.171Z,56.91
2022-10-06T22:03:47.835Z,57.29
2022-10-06T22:06:19.136Z,57.18
2022-10-06T22:08:46.861Z,57.47
2022-10-06T22:11:15.641Z,57.26
2022-10-06T22:13:43.916Z,57.64
2022-10-06T22:16:11.622Z,57.45
2022-10-06T22:18:39.514Z,57.75
2022-10-06T22:21:19.835Z,58.51
2022-10-06T22:23:47.288Z,58.19
2022-10-06T22:26:14.896Z,58.30
2022-10-06T22:28:48.792Z,58.72
2022-10-06T22:31:16.349Z,58.59
2022-10-06T22:33:43.454Z,58.88
2022-10-06T22:36:11.175Z,59.03
2022-10-06T22:38:40.250Z,58.88
2022-10-06T22:41:07.967Z,59.13
2022-10-06T22:43:34.717Z,59.15
2022-10-06T22:46:01.647Z,59.39
2022-10-06T22:48:29.123Z,59.47
2022-10-06T22:50:55.759Z,59.91
2022-10-06T22:53:23.289Z,59.85
2022-10-06T22:55:50.062Z,59.96
2022-10-06T22:58:16.779Z,60.11
2022-10-06T23:00:43.777Z,60.81
2022-10-06T23:03:10.782Z,60.53
2022-10-06T23:05:37.560Z,60.78
2022-10-06T23:08:04.601Z,60.93
2022-10-06T23:10:32.441Z,60.85
2022-10-06T23:12:59.174Z,61.13
2022-10-06T23:15:26.484Z,61.38
2022-10-06T23:17:53.210Z,61.48
2022-10-06T23:20:20.436Z,61.68
2022-10-06T23:22:47.926Z,61.87
2022-10-06T23:25:14.231Z,62.45
2022-10-06T23:27:42.104Z,61.64
2022-10-06T23:30:09.143Z,62.45
2022-10-06T23:32:37.375Z,61.98
2022-10-06T23:35:04.416Z,61.96
2022-10-06T23:37:32.623Z,62.11
2022-10-06T23:39:59.532Z,62.51
2022-10-06T23:42:25.850Z,62.94
2022-10-06T23:44:52.127Z,63.13
2022-10-06T23:47:18.462Z,63.22
2022-10-06T23:49:44.770Z,62.95
2022-10-06T23:52:11.147Z,62.75
2022-10-06T23:54:37.564Z,63.58
2022-10-06T23:57:03.838Z,63.23
2022-10-06T23:59:31.398Z,64.22
